| time (UTC) | temp C | wind direction | speed KPH | gust KPH | rain 1hr cm | rain 24hr cm | rain mn cm | humidity % | barometer mb |
| 20260502123017 | 18 | 234 | 3.2 | 11.3 | 0.00 | 0.08 | 0.00 | 59 | 1016.0 |
| 20260502121520 | 18 | 128 | 1.6 | 9.7 | 0.00 | 0.08 | 0.00 | 57 | 1016.3 |
| 20260502114510 | 17 | 199 | 4.8 | 12.9 | 0.00 | 0.15 | 0.00 | 60 | 1016.6 |
| 20260502113013 | 17 | 277 | 4.8 | 9.7 | 0.00 | 0.15 | 0.00 | 61 | 1016.8 |
| 20260502111505 | 17 | 219 | 1.6 | 9.7 | 0.00 | 0.15 | 0.00 | 65 | 1017.1 |
| 20260502104559 | 16 | 263 | 6.4 | 12.9 | 0.00 | 0.15 | 0.00 | 68 | 1017.2 |
| 20260502103106 | 16 | 229 | 4.8 | 12.9 | 0.00 | 0.15 | 0.00 | 68 | 1017.1 |
| 20260502101619 | 15 | 258 | 4.8 | 9.7 | 0.00 | 0.15 | 0.00 | 69 | 1017.3 |
| 20260502071529 | 12 | 263 | 3.2 | 12.9 | 0.00 | 0.15 | 0.00 | 82 | 1018.4 |
| 20260502070027 | 12 | 134 | 0.0 | 8.0 | 0.00 | 0.15 | 0.00 | 84 | 1018.3 |
| 20260502064530 | 11 | 246 | 1.6 | 8.0 | 0.00 | 0.15 | 0.00 | 85 | 1018.5 |
| 20260502063024 | 11 | 82 | 0.0 | 0.0 | 0.00 | 0.15 | 0.00 | 84 | 1018.3 |
| 20260502061522 | 11 | 241 | 0.0 | 0.0 | 0.00 | 0.15 | 0.00 | 87 | 1018.2 |
| 20260502060023 | 10 | 246 | 0.0 | 0.0 | 0.00 | 0.15 | 0.00 | 88 | 1018.2 |
| 20260502054521 | 10 | 27 | 0.0 | 0.0 | 0.00 | 0.15 | 0.00 | 89 | 1018.1 |
| 20260502053020 | 9 | 49 | 0.0 | 0.0 | 0.00 | 0.15 | 0.00 | 90 | 1018.1 |
| 20260502051520 | 8 | 49 | 0.0 | 0.0 | 0.00 | 0.15 | 0.00 | 90 | 1018.0 |
| 20260502050024 | 9 | 266 | 0.0 | 0.0 | 0.00 | 0.15 | 0.00 | 89 | 1018.1 |
| 20260502044517 | 9 | 266 | 1.6 | 4.8 | 0.00 | 0.15 | 0.00 | 89 | 1018.1 |
| 20260502043017 | 9 | 258 | 0.0 | 3.2 | 0.00 | 0.15 | 0.00 | 89 | 1018.1 |
| 20260502041514 | 10 | 258 | 0.0 | 4.8 | 0.00 | 0.15 | 0.00 | 89 | 1018.2 |
| 20260502040018 | 10 | 261 | 1.6 | 6.4 | 0.00 | 0.15 | 0.00 | 89 | 1018.1 |
| 20260502034514 | 10 | 247 | 3.2 | 8.0 | 0.00 | 0.15 | 0.00 | 89 | 1018.2 |
| 20260502033007 | 10 | 242 | 0.0 | 3.2 | 0.00 | 0.15 | 0.00 | 90 | 1018.0 |
| 20260502031506 | 10 | 259 | 0.0 | 4.8 | 0.00 | 0.15 | 0.00 | 90 | 1018.2 |
| 20260502030004 | 10 | 237 | 3.2 | 6.4 | 0.00 | 0.15 | 0.00 | 90 | 1018.2 |
| 20260502024501 | 10 | 256 | 0.0 | 0.0 | 0.00 | 0.15 | 0.00 | 90 | 1018.3 |
| 20260502023101 | 11 | 253 | 0.0 | 0.0 | 0.00 | 0.15 | 0.00 | 89 | 1018.3 |
| 20260502021558 | 11 | 264 | 0.0 | 3.2 | 0.00 | 0.15 | 0.00 | 89 | 1018.4 |
| 20260502020054 | 11 | 228 | 0.0 | 1.6 | 0.00 | 0.15 | 0.00 | 89 | 1018.6 |
| 20260502014556 | 11 | 262 | 0.0 | 1.6 | 0.00 | 0.15 | 0.00 | 89 | 1018.6 |
| 20260502013055 | 12 | 259 | 0.0 | 4.8 | 0.00 | 0.15 | 0.00 | 88 | 1018.8 |
| 20260502011603 | 12 | 263 | 1.6 | 6.4 | 0.00 | 0.15 | 0.00 | 88 | 1019.1 |
| 20260502010047 | 12 | 278 | 3.2 | 11.3 | 0.00 | 0.15 | 0.00 | 88 | 1019.3 |
| 20260502004557 | 12 | 268 | 1.6 | 6.4 | 0.00 | 0.15 | 0.00 | 88 | 1019.3 |
| 20260502003042 | 12 | 226 | 4.8 | 12.9 | 0.00 | 0.15 | 0.00 | 88 | 1019.3 |
| 20260502001541 | 12 | 245 | 3.2 | 11.3 | 0.00 | 0.15 | 0.00 | 87 | 1019.2 |
| 20260502000045 | 12 | 203 | 4.8 | 12.9 | 0.00 | 0.15 | 0.00 | 88 | 1019.2 |
| 20260501234540 | 12 | 244 | 3.2 | 9.7 | 0.00 | 0.15 | 0.00 | 88 | 1019.3 |
| 20260501233037 | 12 | 246 | 3.2 | 12.9 | 0.00 | 0.15 | 0.00 | 88 | 1019.3 |
| 20260501231539 | 12 | 254 | 3.2 | 9.7 | 0.00 | 0.15 | 0.00 | 88 | 1019.4 |
| 20260501230129 | 12 | 222 | 3.2 | 6.4 | 0.00 | 0.15 | 0.00 | 89 | 1019.4 |
| 20260501224528 | 12 | 250 | 3.2 | 9.7 | 0.00 | 0.15 | 0.15 | 89 | 1019.3 |
| 20260501223027 | 12 | 265 | 3.2 | 8.0 | 0.00 | 0.15 | 0.15 | 88 | 1019.4 |
| 20260501221526 | 12 | 275 | 1.6 | 6.4 | 0.00 | 0.15 | 0.15 | 87 | 1019.4 |
| 20260501220038 | 13 | 245 | 1.6 | 4.8 | 0.00 | 0.15 | 0.15 | 86 | 1019.4 |
| 20260501214529 | 13 | 161 | 1.6 | 4.8 | 0.00 | 0.15 | 0.15 | 86 | 1019.5 |
| 20260501213032 | 13 | 249 | 1.6 | 9.7 | 0.00 | 0.15 | 0.15 | 86 | 1019.3 |
| 20260501211524 | 13 | 248 | 3.2 | 8.0 | 0.00 | 0.15 | 0.15 | 85 | 1019.3 |
| 20260501210023 | 13 | 238 | 4.8 | 8.0 | 0.00 | 0.15 | 0.15 | 85 | 1019.3 |
| 20260501204523 | 13 | 266 | 4.8 | 9.7 | 0.00 | 0.15 | 0.15 | 85 | 1019.4 |
| 20260501203023 | 13 | 254 | 3.2 | 11.3 | 0.00 | 0.15 | 0.15 | 84 | 1019.4 |
| 20260501201522 | 14 | 207 | 3.2 | 8.0 | 0.00 | 0.15 | 0.15 | 82 | 1019.3 |
| 20260501200021 | 15 | 236 | 4.8 | 14.5 | 0.00 | 0.15 | 0.15 | 80 | 1019.3 |
| 20260501194520 | 15 | 264 | 3.2 | 8.0 | 0.00 | 0.15 | 0.15 | 78 | 1019.1 |
| 20260501193033 | 16 | 226 | 1.6 | 11.3 | 0.00 | 0.15 | 0.15 | 76 | 1019.0 |
| 20260501191529 | 16 | 236 | 6.4 | 11.3 | 0.00 | 0.15 | 0.15 | 75 | 1019.1 |
| 20260501190043 | 16 | 218 | 4.8 | 11.3 | 0.00 | 0.15 | 0.15 | 72 | 1018.9 |
| 20260501184531 | 17 | 269 | 1.6 | 8.0 | 0.00 | 0.15 | 0.15 | 70 | 1018.9 |
| 20260501183020 | 17 | 236 | 6.4 | 14.5 | 0.00 | 0.15 | 0.15 | 69 | 1018.8 |
| 20260501181515 | 17 | 193 | 3.2 | 16.1 | 0.00 | 0.15 | 0.15 | 68 | 1018.6 |
| 20260501180015 | 18 | 255 | 9.7 | 24.1 | 0.00 | 0.15 | 0.15 | 66 | 1018.5 |
| 20260501174516 | 19 | 254 | 8.0 | 22.5 | 0.00 | 0.15 | 0.15 | 65 | 1018.2 |
| 20260501173015 | 20 | 248 | 9.7 | 20.9 | 0.00 | 0.15 | 0.15 | 63 | 1018.0 |
| 20260501171512 | 23 | 104 | 8.0 | 17.7 | 0.00 | 0.15 | 0.15 | 54 | 1017.7 |
| 20260501170010 | 23 | 175 | 3.2 | 9.7 | 0.00 | 0.15 | 0.15 | 50 | 1017.5 |
| 20260501164513 | 23 | 201 | 4.8 | 17.7 | 0.00 | 0.15 | 0.15 | 49 | 1017.6 |
| 20260501163006 | 23 | 139 | 11.3 | 17.7 | 0.00 | 0.15 | 0.15 | 47 | 1017.8 |
| 20260501161505 | 23 | 141 | 4.8 | 16.1 | 0.00 | 0.15 | 0.15 | 48 | 1017.8 |
| 20260501160004 | 23 | 146 | 8.0 | 14.5 | 0.00 | 0.15 | 0.15 | 47 | 1017.9 |
| 20260501154503 | 24 | 199 | 4.8 | 16.1 | 0.00 | 0.15 | 0.15 | 46 | 1017.9 |
| 20260501153002 | 24 | 176 | 9.7 | 16.1 | 0.00 | 0.15 | 0.15 | 46 | 1018.1 |
| 20260501151501 | 24 | 153 | 6.4 | 14.5 | 0.00 | 0.15 | 0.15 | 47 | 1018.1 |
| 20260501150109 | 24 | 2 | 0.0 | 16.1 | 0.00 | 0.15 | 0.15 | 46 | 1018.1 |